Terminal Aerodrome Forecast
Issued by NWS

Home | Current Version | Previous Version | Text Only | Print | Product List | Glossary On
Versions: 1 2 3 4 5 6 7 8 9 10 11 12
437
FTUS43 KSGF 180520
TAFJLN
TAF
KJLN 180520Z 1806/1906 20018G28KT P6SM BKN250 WS020/21055KT
     FM181400 29020G30KT P6SM BKN050 OVC100
     FM190100 32008KT P6SM FEW250=

USA.gov is the U.S. government's official web portal to all federal, state and local government web resources and services.